Data for 10/29/2010

Time Sea-Level Adjusted Pressure Absolute Pressure Temperature Relative Humidity Dew Point   
(mb) (inHg) (mb) (inHg) (C) (F) (%) (C) (F)
00:05 1019 30.09 848 25.04 4.9 40.8 51 -4.3 24.3
00:10 1019 30.09 848 25.04 4.9 40.8 53 -3.9 25
00:15 1019 30.09 848 25.04 4.8 40.6 52 -4.2 24.5
00:20 1019 30.09 848 25.04 4.9 40.7 51 -4.3 24.2
00:25 1019 30.09 848 25.04 4.9 40.7 51 -4.3 24.2
00:30 1019 30.09 848 25.04 5 41 48 -5.1 22.8
00:35 1019 30.09 848 25.04 5.2 41.3 49 -4.7 23.5
00:40 1019 30.09 848 25.04 5.2 41.4 48 -5 23
00:45 1019 30.09 848 25.04 5.3 41.6 45 -5.6 22
00:50 1019 30.09 848 25.04 5.5 41.9 46 -5.4 22.4
00:55 1019 30.09 848 25.04 5.7 42.2 45 -5.4 22.4
01:00 1019 30.09 848 25.04 5.6 42 46 -5.1 22.9
01:05 1019 30.09 848 25.04 5.5 41.9 47 -4.9 23.2
01:10 1019 30.09 848 25.04 5.4 41.7 47 -5.1 22.8
01:15 1019 30.09 848 25.04 5.5 41.8 44 -5.8 21.6
01:20 1019 30.09 848 25.04 5.6 42.1 44 -5.7 21.7
01:25 1018 30.06 848 25.04 5.7 42.2 45 -5.3 22.4
01:30 1018 30.06 848 25.04 5.7 42.2 43 -6 21.3
01:35 1018 30.06 848 25.04 5.8 42.4 40 -6.7 20
01:40 1018 30.06 848 25.04 5.9 42.5 41 -6.3 20.6
01:45 1018 30.06 848 25.04 5.7 42.3 43 -5.8 21.5
01:50 1018 30.06 848 25.04 5.5 41.9 43 -6.2 20.9
01:55 1018 30.06 847 25.01 5.5 42 44 -5.9 21.5
02:00 1018 30.06 847 25.01 5.5 42 43 -6.2 20.8
02:05 1018 30.06 847 25.01 5.6 42.1 42 -6.4 20.4
02:10 1018 30.06 847 25.01 5.7 42.3 40 -6.9 19.5
02:15 1018 30.06 847 25.01 5.6 42 45 -5.4 22.3
02:20 1018 30.06 847 25.01 5.2 41.4 45 -5.7 21.8
02:25 1018 30.06 847 25.01 5.4 41.7 44 -5.9 21.3
02:30 1018 30.06 847 25.01 5.3 41.6 44 -5.9 21.4
02:35 1018 30.06 847 25.01 5.2 41.3 46 -5.4 22.2
02:40 1018 30.06 847 25.01 5 41.1 44 -6.2 20.8
02:45 1018 30.06 847 25.01 5.5 42 41 -6.7 20
02:50 1018 30.06 847 25.01 5.5 41.9 42 -6.4 20.4
02:55 1018 30.06 847 25.01 5.6 42.1 40 -6.8 19.8
03:00 1018 30.06 847 25.01 5.7 42.2 40 -6.9 19.6
03:05 1018 30.06 847 25.01 5.8 42.5 38 -7.4 18.6
03:10 1018 30.06 847 25.01 6 42.8 36 -7.8 18
03:15 1018 30.06 847 25.01 6 42.9 36 -8 17.6
03:20 1018 30.06 847 25.01 6 42.7 37 -7.7 18.2
03:25 1018 30.06 847 25.01 6 42.9 34 -8.8 16.1
03:30 1018 30.06 847 25.01 6.1 43 35 -8.3 17.1
03:35 1018 30.06 847 25.01 5.9 42.7 34 -8.7 16.4
03:40 1018 30.06 847 25.01 5.9 42.5 39 -7 19.3
03:45 1018 30.06 847 25.01 5 41.1 42 -6.8 19.8
03:50 1018 30.06 847 25.01 4.5 40.2 42 -7.3 18.9
03:55 1018 30.06 847 25.01 4.6 40.2 43 -7.1 19.2
04:00 1018 30.06 847 25.01 4.5 40.2 40 -7.9 17.8
04:05 1018 30.06 847 25.01 5 40.9 39 -7.8 17.9
04:10 1018 30.06 847 25.01 5 41.1 40 -7.4 18.6
04:15 1018 30.06 847 25.01 4.7 40.5 43 -6.9 19.5
04:20 1018 30.06 847 25.01 4.3 39.7 44 -6.9 19.5
04:25 1018 30.06 847 25.01 3.9 39 46 -6.6 20.1
04:30 1018 30.06 847 25.01 3.5 38.3 47 -6.7 19.9
04:35 1018 30.06 847 25.01 3.4 38.1 47 -6.8 19.7
04:40 1018 30.06 847 25.01 3.5 38.3 46 -7.1 19.2
04:45 1018 30.06 847 25.01 3.5 38.2 47 -6.7 20
04:50 1018 30.06 847 25.01 3.2 37.7 48 -6.7 19.9
04:55 1018 30.06 847 25.01 3.2 37.7 46 -7.3 18.9
05:00 1018 30.06 847 25.01 3.4 38.1 45 -7.5 18.5
05:05 1018 30.06 847 25.01 3.7 38.7 42 -7.9 17.7
05:10 1018 30.06 847 25.01 4.2 39.6 42 -7.6 18.2
05:15 1018 30.06 847 25.01 4 39.1 42 -7.9 17.8
05:20 1018 30.06 847 25.01 4.2 39.6 42 -7.5 18.5
05:25 1018 30.06 847 25.01 4.4 39.8 42 -7.4 18.6
05:30 1018 30.06 847 25.01 4.2 39.6 43 -7.2 19.1
05:35 1018 30.06 847 25.01 4.1 39.4 44 -6.9 19.5
05:40 1018 30.06 847 25.01 3.6 38.4 49 -6.2 20.8
05:45 1018 30.06 847 25.01 2.7 36.8 50 -6.7 20
05:50 1018 30.06 847 25.01 2.9 37.2 49 -6.8 19.7
05:55 1018 30.06 847 25.01 3.1 37.6 48 -6.7 19.9
06:00 1018 30.06 847 25.01 2.6 36.6 51 -6.5 20.3
06:05 1018 30.06 847 25.01 2.7 36.9 51 -6.5 20.3
06:10 1018 30.06 847 25.01 3.1 37.6 49 -6.7 20
06:15 1018 30.06 847 25.01 2.9 37.2 52 -6 21.1
06:20 1018 30.06 847 25.01 2.9 37.2 51 -6.3 20.7
06:25 1018 30.06 847 25.01 2.6 36.7 53 -6 21.2
06:30 1018 30.06 847 25.01 2.2 35.9 54 -6.2 20.9
06:35 1018 30.06 847 25.01 1.8 35.2 58 -5.6 21.9
06:40 1018 30.06 847 25.01 1.2 34.1 57 -6.5 20.2
06:45 1018 30.06 847 25.01 2.2 35.9 47 -8 17.6
06:50 1018 30.06 847 25.01 2.9 37.3 49 -6.8 19.8
06:55 1018 30.06 847 25.01 2.9 37.2 50 -6.5 20.3
07:00 1018 30.06 847 25.01 2.6 36.7 49 -7.1 19.2
07:05 1018 30.06 847 25.01 2.9 37.1 48 -7.1 19.2
07:10 1018 30.06 847 25.01 3 37.4 50 -6.5 20.3
07:15 1018 30.06 847 25.01 2.6 36.8 51 -6.4 20.4
07:20 1018 30.06 847 25.01 2.2 36 54 -6.2 20.8
07:25 1018 30.06 847 25.01 1.8 35.2 50 -7.6 18.3
07:30 1018 30.06 847 25.01 2 35.6 49 -7.6 18.4
07:35 1018 30.06 847 25.01 2.4 36.3 48 -7.5 18.5
07:40 1018 30.06 847 25.01 2 35.6 50 -7.4 18.7
07:45 1018 30.06 847 25.01 1.8 35.3 48 -8 17.6
07:50 1018 30.06 847 25.01 2.1 35.8 50 -7.3 18.9
07:55 1018 30.06 847 25.01 2.2 36 48 -7.8 17.9
08:00 1018 30.06 847 25.01 2.6 36.7 45 -8.3 17.1
08:05 1018 30.06 847 25.01 3.1 37.5 48 -7 19.4
08:10 1018 30.06 847 25.01 3 37.5 47 -7.3 18.9
08:15 1018 30.06 847 25.01 3.3 38 48 -6.6 20
08:20 1018 30.06 847 25.01 3.4 38.1 47 -6.9 19.6
08:25 1018 30.06 847 25.01 3.6 38.4 47 -6.8 19.8
08:30 1018 30.06 847 25.01 3.5 38.3 49 -6.3 20.7
08:35 1018 30.06 847 25.01 3.4 38 46 -7.3 18.9
08:40 1018 30.06 847 25.01 3.9 39.1 42 -8 17.6
08:45 1018 30.06 847 25.01 4.7 40.4 39 -8.2 17.3
08:50 1018 30.06 847 25.01 5 41 37 -8.4 16.8
08:55 1018 30.06 847 25.01 5.3 41.5 37 -8.4 16.9
09:00 1018 30.06 847 25.01 5.6 42 35 -8.7 16.4
09:05 1018 30.06 847 25.01 5.9 42.6 35 -8.5 16.7
09:10 1018 30.06 847 25.01 6 42.8 34 -8.7 16.3
09:15 1018 30.06 847 25.01 6.3 43.4 33 -8.8 16.1
09:20 1018 30.06 847 25.01 6.5 43.7 34 -8.4 16.9
09:25 1018 30.06 847 25.01 6.7 44 33 -8.7 16.3
09:30 1018 30.06 847 25.01 7.1 44.7 32 -8.3 17
09:35 1018 30.06 847 25.01 7.2 45 32 -8.2 17.2
09:40 1018 30.06 847 25.01 7.5 45.5 32 -8 17.6
09:45 1018 30.06 847 25.01 7.6 45.7 33 -7.7 18.2
09:50 1018 30.06 847 25.01 7.8 46.1 33 -7.6 18.3
09:55 1018 30.06 847 25.01 7.9 46.3 32 -7.7 18.1
10:00 1018 30.06 847 25.01 8.1 46.6 31 -7.8 17.9
10:05 1018 30.06 847 25.01 8.6 47.5 31 -7.4 18.7
10:10 1018 30.06 847 25.01 9.1 48.4 30 -7.4 18.7
10:15 1018 30.06 847 25.01 9.4 48.9 32 -6.6 20.1
10:20 1018 30.06 847 25.01 9.1 48.4 33 -6.3 20.6
10:25 1018 30.06 847 25.01 9.4 49 35 -5.1 22.8
10:30 1018 30.06 847 25.01 9.1 48.4 36 -5.1 22.9
10:35 1018 30.06 847 25.01 8.9 47.9 36 -5.5 22.2
10:40 1018 30.06 847 25.01 9.7 49.5 33 -5.7 21.7
10:45 1018 30.06 847 25.01 10.5 50.9 32 -5.3 22.4
10:50 1018 30.06 847 25.01 10.8 51.5 30 -5.9 21.3
10:55 1018 30.06 847 25.01 11.5 52.7 28 -6.4 20.4
11:00 1018 30.06 847 25.01 11 51.7 28 -6.6 20.1
11:05 1018 30.06 847 25.01 10.9 51.6 28 -6.8 19.7
11:10 1018 30.06 847 25.01 11.7 53 29 -6 21.2
11:15 1018 30.06 847 25.01 11.6 52.8 28 -6.5 20.4
11:20 1018 30.06 847 25.01 12.9 55.2 24 -7.2 19
11:25 1018 30.06 847 25.01 13.4 56.2 24 -6.7 19.9
11:30 1018 30.06 847 25.01 14.1 57.4 22 -7.2 19.1
11:35 1018 30.06 847 25.01 14.1 57.4 22 -7.1 19.2
11:40 1017 30.03 847 25.01 13.4 56.1 24 -6.8 19.7
11:45 1017 30.03 846 24.98 13.2 55.7 30 -3.9 24.9
11:50 1017 30.03 846 24.98 12.7 54.9 30 -4.3 24.2
11:55 1017 30.03 846 24.98 11.8 53.3 30 -5.1 22.8
12:00 1017 30.03 846 24.98 12.6 54.7 29 -5 23.1
12:05 1017 30.03 846 24.98 12.9 55.2 29 -4.6 23.6
12:10 1017 30.03 846 24.98 12.3 54.2 31 -4.1 24.6
12:15 1017 30.03 846 24.98 12.3 54.1 30 -4.6 23.8
12:20 1017 30.03 846 24.98 12 53.5 30 -5.2 22.7
12:25 1017 30.03 846 24.98 11.9 53.4 30 -5.3 22.5
12:30 1017 30.03 846 24.98 11.5 52.7 30 -5.6 22
12:35 1017 30.03 846 24.98 11.8 53.2 28 -6 21.2
12:40 1017 30.03 846 24.98 12.4 54.4 26 -6.4 20.4
12:45 1017 30.03 846 24.98 12.9 55.3 24 -6.9 19.5
12:50 1017 30.03 846 24.98 12.9 55.1 25 -6.6 20.2
12:55 1017 30.03 846 24.98 12.9 55.3 26 -6.2 20.8
13:00 1017 30.03 846 24.98 13.2 55.8 25 -6.3 20.7
13:05 1017 30.03 846 24.98 12.7 54.9 25 -6.9 19.6
13:10 1017 30.03 846 24.98 13.3 56 24 -6.6 20.2
13:15 1016 30 846 24.98 13.7 56.7 22 -7.3 18.9
13:20 1016 30 846 24.98 14.3 57.8 23 -6.6 20.1
13:25 1016 30 845 24.95 14.9 58.8 20 -8.1 17.5
13:30 1016 30 845 24.95 15.1 59.2 19 -8.4 16.9
13:35 1016 30 845 24.95 14.7 58.4 20 -8 17.7
13:40 1016 30 845 24.95 14.8 58.7 21 -7.5 18.6
13:45 1016 30 845 24.95 14.6 58.2 19 -8.9 16
13:50 1016 30 845 24.95 14.9 58.7 18 -9 15.8
13:55 1016 30 845 24.95 15.3 59.5 19 -8 17.6
14:00 1016 30 845 24.95 15 59 20 -7.8 18
14:05 1016 30 845 24.95 15.2 59.3 20 -7.8 17.9
14:10 1015 29.97 845 24.95 15.2 59.4 20 -7.4 18.8
14:15 1015 29.97 845 24.95 14.9 58.8 20 -7.9 17.8
14:20 1015 29.97 845 24.95 14.5 58.2 21 -7.4 18.6
14:25 1015 29.97 845 24.95 13.9 57.1 21 -7.9 17.8
14:30 1015 29.97 845 24.95 14.2 57.5 21 -7.9 17.7
14:35 1015 29.97 845 24.95 13.8 56.9 21 -8 17.6
14:40 1015 29.97 845 24.95 14 57.2 21 -7.8 17.9
14:45 1015 29.97 844 24.92 13.8 56.9 23 -7.2 19.1
14:50 1015 29.97 844 24.92 13.7 56.7 23 -7.2 19.1
14:55 1015 29.97 845 24.95 13.9 57 23 -6.6 20.1
15:00 1015 29.97 844 24.92 13.8 56.9 22 -7.4 18.6
15:05 1015 29.97 844 24.92 13.6 56.4 23 -7.2 19.1
15:10 1015 29.97 844 24.92 13.7 56.6 24 -6.6 20.2
15:15 1015 29.97 844 24.92 13.7 56.6 24 -6.4 20.4
15:20 1015 29.97 844 24.92 13.8 56.9 24 -6.3 20.7
15:25 1015 29.97 844 24.92 13.9 56.9 24 -6.3 20.7
15:30 1015 29.97 845 24.95 13.7 56.6 25 -6.1 21
15:35 1015 29.97 845 24.95 13.5 56.3 25 -6 21.3
15:40 1015 29.97 845 24.95 13.4 56.2 25 -6.2 20.8
15:45 1015 29.97 845 24.95 13.7 56.6 24 -6.4 20.5
15:50 1016 30 845 24.95 13.5 56.2 24 -6.6 20.2
15:55 1016 30 845 24.95 13.1 55.6 24 -6.9 19.6
16:00 1016 30 845 24.95 13.2 55.7 25 -6.5 20.3
16:05 1016 30 845 24.95 13.3 55.9 24 -6.7 20
16:10 1016 30 845 24.95 13.4 56.1 25 -6.4 20.6
16:15 1015 29.97 845 24.95 13.2 55.8 25 -6.5 20.2
16:20 1016 30 845 24.95 13.3 56 26 -5.9 21.3
16:25 1016 30 845 24.95 13.1 55.6 26 -5.7 21.7
16:30 1016 30 845 24.95 13 55.4 25 -6.6 20.1
16:35 1016 30 845 24.95 13.5 56.4 24 -6.7 19.9
16:40 1016 30 845 24.95 13.8 56.9 24 -6.5 20.3
16:45 1016 30 845 24.95 13.9 57 24 -6.5 20.4
16:50 1016 30 845 24.95 13.8 56.8 24 -6.4 20.5
16:55 1016 30 845 24.95 13.7 56.7 24 -6.3 20.6
17:00 1016 30 845 24.95 13.7 56.6 24 -6.5 20.3
17:05 1016 30 845 24.95 13.7 56.6 24 -6.6 20.1
17:10 1016 30 845 24.95 13.7 56.7 24 -6.6 20.1
17:15 1016 30 845 24.95 13.7 56.6 23 -6.8 19.7
17:20 1016 30 845 24.95 13.7 56.6 24 -6.8 19.8
17:25 1016 30 845 24.95 13.6 56.6 24 -6.4 20.5
17:30 1016 30 845 24.95 13.6 56.5 24 -6.4 20.6
17:35 1016 30 845 24.95 13.5 56.2 25 -6 21.1
17:40 1016 30 845 24.95 13.4 56 26 -5.7 21.7
17:45 1016 30 845 24.95 13.3 55.9 26 -6 21.2
17:50 1016 30 845 24.95 13.1 55.6 26 -6 21.3
17:55 1016 30 845 24.95 13.1 55.5 26 -6 21.2
18:00 1016 30 845 24.95 13 55.4 26 -6 21.3
18:05 1016 30 845 24.95 13.2 55.7 24 -6.7 20
18:10 1016 30 845 24.95 13.2 55.7 25 -6.4 20.6
18:15 1016 30 845 24.95 13.2 55.7 25 -6.4 20.6
18:20 1016 30 845 24.95 13.1 55.6 25 -6.5 20.3
18:25 1016 30 845 24.95 13.2 55.7 25 -6.3 20.7
18:30 1016 30 845 24.95 13 55.3 26 -6 21.2
18:35 1016 30 845 24.95 12.6 54.7 27 -6 21.2
18:40 1016 30 845 24.95 12.4 54.4 27 -5.9 21.3
18:45 1016 30 845 24.95 12.3 54.1 29 -5.4 22.3
18:50 1016 30 845 24.95 12 53.6 29 -5.5 22.1
18:55 1016 30 846 24.98 12 53.5 29 -5.5 22.1
19:00 1016 30 846 24.98 11.9 53.5 29 -5.3 22.5
19:05 1016 30 846 24.98 11.8 53.2 30 -5.3 22.4
19:10 1017 30.03 846 24.98 11.7 53.1 30 -5.3 22.5
19:15 1017 30.03 846 24.98 11.7 53 30 -5.2 22.7
19:20 1017 30.03 846 24.98 11.7 53 30 -5.2 22.6
19:25 1017 30.03 846 24.98 11.7 53 31 -4.9 23.2
19:30 1017 30.03 846 24.98 11.6 52.9 32 -4.6 23.7
19:35 1017 30.03 846 24.98 11.5 52.7 32 -4.7 23.5
19:40 1017 30.03 846 24.98 11.4 52.6 32 -4.6 23.7
19:45 1017 30.03 846 24.98 11.4 52.4 32 -4.6 23.7
19:50 1017 30.03 846 24.98 11.3 52.3 33 -4.5 23.9
19:55 1017 30.03 846 24.98 11.2 52.1 33 -4.4 24.1
20:00 1017 30.03 846 24.98 10.6 51.1 36 -3.7 25.4
20:05 1017 30.03 846 24.98 10.2 50.3 38 -3.3 26
20:10 1017 30.03 846 24.98 9.9 49.7 40 -3.1 26.5
20:15 1017 30.03 846 24.98 9.6 49.3 41 -3 26.7
20:20 1017 30.03 846 24.98 9.3 48.8 42 -2.8 26.9
20:25 1017 30.03 846 24.98 9.2 48.6 43 -2.6 27.3
20:30 1017 30.03 846 24.98 9.2 48.6 44 -2.5 27.5
20:35 1017 30.03 846 24.98 9.1 48.4 43 -2.7 27.1
20:40 1017 30.03 846 24.98 9.2 48.5 43 -2.8 26.9
20:45 1017 30.03 846 24.98 9.2 48.6 43 -2.8 26.9
20:50 1017 30.03 847 25.01 9.1 48.4 45 -2.2 28.1
20:55 1017 30.03 847 25.01 8.5 47.3 45 -2.6 27.3
21:00 1018 30.06 847 25.01 8.6 47.5 44 -2.8 27
21:05 1018 30.06 847 25.01 8.8 47.9 44 -2.7 27.2
21:10 1018 30.06 847 25.01 8.9 48.1 44 -2.6 27.4
21:15 1018 30.06 847 25.01 9 48.2 45 -2.3 27.8
21:20 1018 30.06 847 25.01 9 48.1 45 -2.4 27.7
21:25 1018 30.06 847 25.01 8.9 48.1 45 -2.5 27.6
21:30 1018 30.06 847 25.01 9 48.1 45 -2.2 28
21:35 1018 30.06 847 25.01 8.9 48.1 46 -2 28.5
21:40 1018 30.06 847 25.01 8.8 47.8 46 -2.1 28.3
21:45 1018 30.06 847 25.01 8.6 47.6 46 -2.2 28.1
21:50 1018 30.06 847 25.01 8.4 47 47 -2.3 27.9
21:55 1018 30.06 847 25.01 8.3 46.9 47 -2.4 27.7
22:00 1018 30.06 847 25.01 8.4 47 48 -2.1 28.3
22:05 1018 30.06 847 25.01 8.5 47.3 47 -2.1 28.1
22:10 1018 30.06 847 25.01 8.6 47.4 49 -1.7 29
22:15 1018 30.06 847 25.01 8.5 47.2 51 -1.1 30.1
22:20 1018 30.06 847 25.01 8.4 47.2 51 -1.1 30.1
22:25 1018 30.06 847 25.01 8.6 47.4 51 -0.9 30.4
22:30 1018 30.06 847 25.01 8.6 47.6 52 -0.6 30.8
22:35 1018 30.06 847 25.01 8.7 47.6 52 -0.5 31.1
22:40 1018 30.06 847 25.01 8.6 47.4 52 -0.7 30.7
22:45 1018 30.06 847 25.01 8.6 47.4 53 -0.5 31.1
22:50 1018 30.06 848 25.04 8.5 47.2 54 -0.3 31.5
22:55 1018 30.06 848 25.04 8.3 46.9 58 0.5 32.8
23:00 1018 30.06 848 25.04 8.1 46.7 60 1 33.7
23:05 1019 30.09 848 25.04 7.9 46.2 63 1.3 34.3
23:10 1019 30.09 848 25.04 7.8 46 63 1.3 34.3
23:15 1019 30.09 848 25.04 7.5 45.5 65 1.5 34.7
23:20 1019 30.09 848 25.04 7.5 45.5 67 1.7 35.1
23:25 1019 30.09 848 25.04 7.5 45.4 68 1.9 35.5
23:30 1019 30.09 848 25.04 7.4 45.4 68 1.9 35.5
23:35 1019 30.09 848 25.04 7.4 45.3 68 1.9 35.4
23:40 1019 30.09 848 25.04 6.9 44.3 72 2.1 35.9
23:45 1019 30.09 848 25.04 6.5 43.7 73 2 35.6
23:50 1019 30.09 848 25.04 6.4 43.5 75 2.2 36
23:55 1019 30.09 848 25.04 6.3 43.3 75 2.2 35.9
24:00 1018 30.06 848 25.04 6.2 43.1 75 2.2 35.9